createdAt,value
2023-12-11T00:00:39.629Z,78.06
2023-12-11T00:03:09.374Z,78.01
2023-12-11T00:05:39.998Z,77.98
2023-12-11T00:08:09.871Z,77.86
2023-12-11T00:10:37.377Z,78.08
2023-12-11T00:13:07.668Z,78.27
2023-12-11T00:15:35.567Z,78.15
2023-12-11T00:18:03.486Z,78.16
2023-12-11T00:20:31.178Z,78.07
2023-12-11T00:22:58.964Z,78.18
2023-12-11T00:25:28.375Z,78.21
2023-12-11T00:27:56.128Z,78.23
2023-12-11T00:30:24.077Z,78.28
2023-12-11T00:32:53.116Z,78.35
2023-12-11T00:35:20.615Z,78.51
2023-12-11T00:37:48.285Z,78.25
2023-12-11T00:40:16.007Z,78.17
2023-12-11T00:44:19.977Z,78.52
2023-12-11T00:46:47.586Z,78.86
2023-12-11T00:49:15.132Z,78.84
2023-12-11T00:51:44.202Z,79.08
2023-12-11T00:54:12.155Z,79.07
2023-12-11T00:56:39.940Z,79.11
2023-12-11T00:59:07.618Z,78.77
2023-12-11T01:01:35.173Z,78.56
2023-12-11T01:04:04.835Z,78.44
2023-12-11T01:06:32.500Z,78.66
2023-12-11T01:09:00.094Z,78.70
2023-12-11T01:11:27.683Z,78.85
2023-12-11T01:13:55.216Z,79.08
2023-12-11T01:16:23.893Z,78.95
2023-12-11T01:18:52.196Z,79.05
2023-12-11T01:21:19.825Z,79.05
2023-12-11T01:23:49.443Z,78.94
2023-12-11T01:26:16.967Z,78.75
2023-12-11T01:28:44.632Z,78.94
2023-12-11T01:31:12.285Z,79.16
2023-12-11T01:33:39.941Z,79.39
2023-12-11T01:36:07.803Z,79.30
2023-12-11T01:38:35.319Z,79.36
2023-12-11T01:41:03.624Z,79.19
2023-12-11T01:43:31.191Z,79.44
2023-12-11T01:46:06.633Z,79.56
2023-12-11T01:48:35.441Z,79.61
2023-12-11T01:51:04.126Z,79.63
2023-12-11T01:53:31.730Z,79.80
2023-12-11T01:56:01.085Z,79.82
2023-12-11T01:58:30.939Z,79.84
2023-12-11T02:00:58.993Z,79.54
2023-12-11T02:03:26.708Z,79.60
2023-12-11T02:05:54.333Z,79.45
2023-12-11T02:08:21.877Z,79.41
2023-12-11T02:10:49.958Z,79.61
2023-12-11T02:13:17.652Z,79.79
2023-12-11T02:15:46.151Z,79.97
2023-12-11T02:18:15.824Z,79.78
2023-12-11T02:20:44.235Z,79.78
2023-12-11T02:23:19.464Z,79.64
2023-12-11T02:25:47.641Z,79.87
2023-12-11T02:28:16.096Z,80.01
2023-12-11T02:30:51.109Z,79.96
2023-12-11T02:33:19.279Z,79.95
2023-12-11T02:35:46.937Z,80.08
2023-12-11T02:38:14.445Z,79.91
2023-12-11T02:40:42.252Z,79.86
2023-12-11T02:43:10.170Z,79.84
2023-12-11T02:45:37.729Z,80.11
2023-12-11T02:48:06.645Z,80.21
2023-12-11T02:50:34.389Z,80.45
2023-12-11T02:53:03.034Z,80.45
2023-12-11T02:55:30.741Z,80.46
2023-12-11T02:57:59.586Z,80.26
2023-12-11T03:00:31.996Z,80.30
2023-12-11T03:02:59.826Z,80.27
2023-12-11T03:05:27.498Z,80.28
2023-12-11T03:07:55.024Z,80.25
2023-12-11T03:10:24.438Z,80.45
2023-12-11T03:12:53.706Z,80.23
2023-12-11T03:15:21.350Z,79.77
2023-12-11T03:17:49.251Z,79.58
2023-12-11T03:20:16.806Z,79.78
2023-12-11T03:22:44.582Z,79.92
2023-12-11T03:25:12.346Z,80.21
2023-12-11T03:27:40.003Z,80.19
2023-12-11T03:30:08.233Z,80.43
2023-12-11T03:32:36.077Z,80.41
2023-12-11T03:35:04.648Z,80.25
2023-12-11T03:37:33.936Z,79.89
2023-12-11T03:40:03.261Z,79.65
2023-12-11T03:42:30.912Z,79.66
2023-12-11T03:44:59.792Z,79.75
2023-12-11T03:47:27.584Z,79.92
2023-12-11T03:49:55.955Z,79.89
2023-12-11T03:52:23.551Z,79.82
2023-12-11T03:54:51.211Z,80.04
2023-12-11T03:57:18.966Z,79.88
2023-12-11T03:59:46.554Z,79.75
2023-12-11T04:02:14.254Z,79.69
2023-12-11T04:04:42.241Z,79.71
2023-12-11T04:07:10.128Z,79.86
2023-12-11T04:09:37.737Z,79.84
2023-12-11T04:12:07.817Z,80.07
2023-12-11T04:14:36.128Z,80.37
2023-12-11T04:17:03.794Z,80.13
2023-12-11T04:19:31.420Z,79.95
2023-12-11T04:21:59.679Z,79.75
2023-12-11T04:24:27.344Z,79.91
2023-12-11T04:26:54.948Z,79.96
2023-12-11T04:29:22.640Z,79.95
2023-12-11T04:31:50.158Z,80.03
2023-12-11T04:34:17.744Z,80.00
2023-12-11T04:36:45.608Z,79.90
2023-12-11T04:39:14.098Z,79.55
2023-12-11T04:41:41.890Z,79.36
2023-12-11T04:44:09.439Z,79.12
2023-12-11T04:46:39.331Z,79.33
2023-12-11T04:49:07.058Z,79.41
2023-12-11T04:51:34.769Z,79.33
2023-12-11T04:54:03.195Z,79.34
2023-12-11T04:56:31.940Z,79.67
2023-12-11T04:58:59.596Z,79.40
2023-12-11T05:01:28.227Z,79.35
2023-12-11T05:03:55.851Z,79.56
2023-12-11T05:06:23.339Z,79.66
2023-12-11T05:08:53.001Z,79.53
2023-12-11T05:11:22.454Z,79.81
2023-12-11T05:13:50.143Z,79.88
2023-12-11T05:16:17.981Z,79.81
2023-12-11T05:18:45.605Z,79.56
2023-12-11T05:21:14.888Z,79.58
2023-12-11T05:23:43.176Z,79.77
2023-12-11T05:26:10.767Z,79.68
2023-12-11T05:28:38.306Z,79.72
2023-12-11T05:31:07.576Z,79.71
2023-12-11T05:33:35.427Z,79.84
2023-12-11T05:36:03.309Z,79.74
2023-12-11T05:38:30.953Z,79.43
2023-12-11T05:41:01.179Z,79.47
2023-12-11T05:43:28.746Z,79.69
2023-12-11T05:45:56.353Z,79.86
2023-12-11T05:48:24.317Z,79.85
2023-12-11T05:50:53.071Z,79.96
2023-12-11T05:53:21.810Z,80.03
2023-12-11T05:55:49.362Z,79.85
2023-12-11T05:58:17.573Z,79.61
2023-12-11T06:00:46.436Z,79.74
2023-12-11T06:03:15.184Z,79.71
2023-12-11T06:05:42.923Z,79.80
2023-12-11T06:08:11.955Z,79.72
2023-12-11T06:10:39.545Z,79.56
2023-12-11T06:13:08.344Z,79.41
2023-12-11T06:15:35.957Z,79.43
2023-12-11T06:18:03.837Z,79.41
2023-12-11T06:20:31.506Z,79.20
2023-12-11T06:22:59.348Z,79.03
2023-12-11T06:25:26.916Z,78.76
2023-12-11T06:27:54.585Z,78.84
2023-12-11T06:30:23.625Z,78.62
2023-12-11T06:32:51.261Z,78.74
2023-12-11T06:35:20.498Z,78.77
2023-12-11T06:37:48.096Z,78.91
2023-12-11T06:40:15.735Z,78.64
2023-12-11T06:42:43.328Z,78.57
2023-12-11T06:45:12.076Z,78.37
2023-12-11T06:47:39.715Z,78.75
2023-12-11T06:50:07.716Z,78.71
2023-12-11T06:52:35.401Z,78.72
2023-12-11T06:55:04.042Z,78.77
2023-12-11T06:57:32.126Z,78.70
2023-12-11T06:59:59.826Z,78.84
2023-12-11T07:02:28.301Z,78.55
2023-12-11T07:04:56.220Z,78.30
2023-12-11T07:07:23.979Z,78.30
2023-12-11T07:09:51.673Z,78.55
2023-12-11T07:12:19.427Z,78.45
2023-12-11T07:14:48.256Z,78.33
2023-12-11T07:17:15.819Z,78.60
2023-12-11T07:19:43.829Z,78.50
2023-12-11T07:22:11.473Z,78.06
2023-12-11T07:24:39.090Z,78.14
2023-12-11T07:27:07.399Z,77.77
2023-12-11T07:29:34.929Z,77.84
2023-12-11T07:32:02.524Z,77.88
2023-12-11T07:34:31.216Z,78.19
2023-12-11T07:36:59.342Z,78.39
2023-12-11T07:39:27.367Z,78.54
2023-12-11T07:41:56.002Z,78.55
2023-12-11T07:44:26.109Z,78.12
2023-12-11T07:46:55.098Z,78.03
2023-12-11T07:49:23.627Z,78.07
2023-12-11T07:51:53.120Z,78.16
2023-12-11T07:54:23.785Z,77.93
2023-12-11T07:56:59.126Z,77.97
2023-12-11T07:59:26.833Z,77.93
2023-12-11T08:01:54.570Z,77.65
2023-12-11T08:04:25.107Z,77.73
2023-12-11T08:06:53.148Z,77.60
2023-12-11T08:09:21.503Z,77.25
2023-12-11T08:11:50.762Z,77.23
2023-12-11T08:14:18.655Z,77.28
2023-12-11T08:16:46.596Z,77.24
2023-12-11T08:19:18.589Z,77.17
2023-12-11T08:21:48.720Z,77.49
2023-12-11T08:24:17.728Z,77.36
2023-12-11T08:26:45.478Z,76.94
2023-12-11T08:29:13.171Z,76.56
2023-12-11T08:31:42.072Z,76.67
2023-12-11T08:34:10.087Z,76.86
2023-12-11T08:36:40.701Z,76.79
2023-12-11T08:39:09.520Z,76.69
2023-12-11T08:41:38.475Z,76.54
2023-12-11T08:44:10.138Z,76.59
2023-12-11T08:46:41.687Z,76.39
2023-12-11T08:49:11.453Z,76.11
2023-12-11T08:51:39.840Z,75.93
2023-12-11T08:54:07.644Z,75.99
2023-12-11T08:56:35.197Z,76.06
2023-12-11T08:59:03.004Z,76.37
2023-12-11T09:01:32.376Z,76.44
2023-12-11T09:04:03.454Z,76.64
2023-12-11T09:06:31.038Z,76.72
2023-12-11T09:08:58.767Z,76.58
2023-12-11T09:11:29.622Z,76.22
2023-12-11T09:14:00.207Z,76.00
2023-12-11T09:16:28.283Z,76.03
2023-12-11T09:18:56.303Z,76.12
2023-12-11T09:21:24.056Z,76.28
2023-12-11T09:23:51.934Z,76.40
2023-12-11T09:26:20.203Z,76.44
2023-12-11T09:28:52.207Z,76.09
2023-12-11T09:31:24.880Z,75.90
2023-12-11T09:33:53.107Z,75.89
2023-12-11T09:36:26.407Z,76.04
2023-12-11T09:38:57.459Z,75.97
2023-12-11T09:41:30.134Z,76.18
2023-12-11T09:43:58.870Z,76.01
2023-12-11T09:46:26.505Z,75.93
2023-12-11T09:48:54.219Z,75.89
2023-12-11T09:51:22.498Z,75.87
2023-12-11T09:53:50.133Z,75.96
2023-12-11T09:56:17.719Z,76.15
2023-12-11T09:58:45.470Z,76.31
2023-12-11T10:01:13.672Z,76.11
2023-12-11T10:03:41.441Z,76.16
2023-12-11T10:06:09.339Z,76.51
2023-12-11T10:08:44.062Z,76.47
2023-12-11T10:11:13.035Z,76.34
2023-12-11T10:13:41.138Z,76.45
2023-12-11T10:16:32.513Z,76.42
2023-12-11T10:19:02.027Z,76.51
2023-12-11T10:21:40.373Z,76.59
2023-12-11T10:24:17.742Z,76.58
2023-12-11T10:26:46.896Z,76.40
2023-12-11T10:29:20.104Z,76.59
2023-12-11T10:31:47.806Z,76.54
2023-12-11T10:34:16.728Z,76.45
2023-12-11T10:36:51.726Z,76.15
2023-12-11T10:39:24.588Z,76.15
2023-12-11T10:41:53.719Z,76.29
2023-12-11T10:44:42.773Z,76.05
2023-12-11T10:47:14.772Z,75.80
2023-12-11T10:49:42.733Z,75.58
2023-12-11T10:52:10.652Z,75.40
2023-12-11T10:54:39.486Z,74.81
2023-12-11T10:59:38.522Z,74.31
2023-12-11T11:02:06.383Z,74.46
2023-12-11T11:04:35.863Z,74.69
2023-12-11T11:07:03.596Z,74.70
2023-12-11T11:09:34.847Z,74.78
2023-12-11T11:12:09.546Z,74.66
2023-12-11T11:14:44.195Z,74.66
2023-12-11T11:17:12.724Z,74.72
2023-12-11T11:20:09.737Z,74.78
2023-12-11T11:22:41.071Z,74.81
2023-12-11T11:25:34.715Z,75.06
2023-12-11T11:28:02.607Z,75.00
2023-12-11T11:30:42.811Z,74.91
2023-12-11T11:33:10.723Z,74.88
2023-12-11T11:35:53.990Z,74.85
2023-12-11T11:38:22.936Z,74.84
2023-12-11T11:40:52.812Z,75.13
2023-12-11T11:43:20.642Z,75.44
2023-12-11T11:45:54.876Z,75.59
2023-12-11T11:48:22.576Z,75.73
2023-12-11T11:50:52.256Z,75.84
2023-12-11T11:53:20.766Z,75.98
2023-12-11T11:55:48.610Z,76.02
2023-12-11T11:58:16.608Z,75.80
2023-12-11T12:00:44.756Z,75.55
2023-12-11T12:03:13.276Z,75.41
2023-12-11T12:05:57.124Z,75.54
2023-12-11T12:08:25.957Z,75.54
2023-12-11T12:10:57.569Z,75.46
2023-12-11T12:13:25.224Z,75.46
2023-12-11T12:15:54.292Z,75.25
2023-12-11T12:18:22.216Z,75.48
2023-12-11T12:21:05.644Z,75.61
2023-12-11T12:23:36.372Z,75.79
2023-12-11T12:26:04.366Z,76.07
2023-12-11T12:28:32.142Z,76.18
2023-12-11T12:30:59.884Z,76.16
2023-12-11T12:33:27.675Z,76.04
2023-12-11T12:35:55.416Z,75.94
2023-12-11T12:38:23.030Z,76.13
2023-12-11T12:40:52.970Z,76.23
2023-12-11T12:43:20.899Z,76.34
2023-12-11T12:45:49.334Z,76.41
2023-12-11T12:48:17.026Z,76.55
2023-12-11T12:50:44.660Z,76.54
2023-12-11T12:53:14.503Z,76.67
2023-12-11T12:55:42.126Z,76.86
2023-12-11T12:58:15.721Z,76.87
2023-12-11T13:02:34.474Z,77.32
2023-12-11T13:05:02.283Z,77.46
2023-12-11T13:07:30.400Z,77.36
2023-12-11T13:09:58.337Z,77.36
2023-12-11T13:12:29.769Z,77.55
2023-12-11T13:14:57.634Z,77.77
2023-12-11T13:17:25.351Z,77.94
2023-12-11T13:19:57.418Z,78.15
2023-12-11T13:22:37.562Z,78.39
2023-12-11T13:25:07.453Z,78.44
2023-12-11T13:34:12.773Z,78.58
2023-12-11T13:36:40.549Z,78.65
2023-12-11T13:39:09.766Z,78.65
2023-12-11T13:41:40.233Z,78.69
2023-12-11T13:44:07.895Z,78.42
2023-12-11T13:46:38.414Z,78.34
2023-12-11T13:49:06.241Z,78.52
2023-12-11T13:51:33.973Z,78.78
2023-12-11T13:54:01.737Z,78.86
2023-12-11T13:56:29.730Z,78.93
2023-12-11T13:58:57.517Z,78.93
2023-12-11T14:01:25.465Z,78.88
2023-12-11T14:03:54.061Z,78.88
2023-12-11T14:06:21.704Z,78.92
2023-12-11T14:08:49.341Z,79.23
2023-12-11T14:11:19.243Z,79.46
2023-12-11T14:13:47.263Z,79.48
2023-12-11T14:16:14.954Z,79.47
2023-12-11T14:18:42.902Z,79.60
2023-12-11T14:21:11.077Z,79.87
2023-12-11T14:23:39.713Z,80.05
2023-12-11T14:26:07.266Z,80.21
2023-12-11T14:28:34.866Z,80.57
2023-12-11T14:31:04.303Z,80.74
2023-12-11T14:33:32.152Z,80.74
2023-12-11T14:35:59.743Z,80.65
2023-12-11T14:38:28.129Z,80.79
2023-12-11T14:40:55.707Z,80.98
2023-12-11T14:43:24.442Z,81.09
2023-12-11T14:45:52.103Z,81.37
2023-12-11T14:48:19.765Z,81.28
2023-12-11T14:50:48.078Z,81.29
2023-12-11T14:53:15.874Z,81.31
2023-12-11T14:55:44.423Z,81.35
2023-12-11T14:58:12.238Z,81.50
2023-12-11T15:00:39.972Z,81.53
2023-12-11T15:03:07.564Z,81.59
2023-12-11T15:05:35.436Z,81.54
2023-12-11T15:08:06.424Z,81.52
2023-12-11T15:10:38.458Z,81.71
2023-12-11T15:13:07.780Z,81.87
2023-12-11T15:15:36.463Z,82.11
2023-12-11T15:18:04.277Z,82.20
2023-12-11T15:20:32.393Z,82.07
2023-12-11T15:23:00.620Z,81.92
2023-12-11T15:25:29.035Z,81.84
2023-12-11T15:27:57.413Z,81.77
2023-12-11T15:30:26.058Z,81.84
2023-12-11T15:32:53.714Z,81.86
2023-12-11T15:35:23.579Z,81.78
2023-12-11T15:37:52.185Z,81.51
2023-12-11T15:40:20.953Z,81.34
2023-12-11T15:42:50.690Z,81.15
2023-12-11T15:45:18.388Z,81.22
2023-12-11T15:48:00.762Z,81.29
2023-12-11T15:50:31.783Z,81.32
2023-12-11T15:53:00.155Z,81.09
2023-12-11T15:55:27.731Z,80.79
2023-12-11T15:57:55.465Z,80.69
2023-12-11T16:00:23.745Z,80.53
2023-12-11T16:02:53.935Z,80.65
2023-12-11T16:05:22.282Z,80.46
2023-12-11T16:07:50.025Z,80.30
2023-12-11T16:10:17.657Z,80.08
2023-12-11T16:12:45.544Z,79.87
2023-12-11T16:15:13.668Z,80.09
2023-12-11T16:17:41.269Z,79.97
2023-12-11T16:20:09.540Z,80.10
2023-12-11T16:22:38.315Z,80.18
2023-12-11T16:25:06.478Z,80.13
2023-12-11T16:27:34.869Z,80.28
2023-12-11T16:30:02.669Z,80.41
2023-12-11T16:32:30.819Z,80.62
2023-12-11T16:35:01.159Z,80.82
2023-12-11T16:37:28.900Z,80.97
2023-12-11T16:39:58.030Z,80.82
2023-12-11T16:42:28.643Z,80.72
2023-12-11T16:44:59.250Z,80.50
2023-12-11T16:47:30.599Z,80.47
2023-12-11T16:50:06.721Z,80.49
2023-12-11T16:52:39.861Z,80.72
2023-12-11T16:55:14.850Z,80.80
2023-12-11T16:57:44.024Z,80.70
2023-12-11T17:00:12.680Z,80.43
2023-12-11T17:02:41.511Z,80.56
2023-12-11T17:05:12.432Z,80.49
2023-12-11T17:07:40.673Z,80.68
2023-12-11T17:10:09.859Z,80.84
2023-12-11T17:12:40.526Z,81.00
2023-12-11T17:15:09.833Z,80.79
2023-12-11T17:17:38.019Z,80.47
2023-12-11T17:20:06.432Z,80.40
2023-12-11T17:22:40.321Z,80.38
2023-12-11T17:25:15.025Z,80.46
2023-12-11T17:27:44.999Z,80.26
2023-12-11T17:30:13.052Z,80.17
2023-12-11T17:32:40.964Z,79.97
2023-12-11T17:35:08.736Z,79.75
2023-12-11T17:37:36.877Z,79.66
2023-12-11T17:40:08.198Z,79.72
2023-12-11T17:43:01.934Z,79.75
2023-12-11T17:45:29.562Z,79.64
2023-12-11T17:47:57.268Z,79.77
2023-12-11T17:50:28.659Z,79.72
2023-12-11T17:52:56.331Z,79.80
2023-12-11T17:55:24.556Z,79.85
2023-12-11T17:57:55.386Z,80.06
2023-12-11T18:00:23.261Z,80.28
2023-12-11T18:02:51.308Z,80.45
2023-12-11T18:05:22.068Z,80.51
2023-12-11T18:07:51.255Z,80.34
2023-12-11T18:10:20.805Z,80.36
2023-12-11T18:12:54.503Z,80.30
2023-12-11T18:15:23.035Z,80.44
2023-12-11T18:17:55.160Z,80.39
2023-12-11T18:20:26.396Z,80.49
2023-12-11T18:22:54.146Z,80.40
2023-12-11T18:25:25.122Z,80.38
2023-12-11T18:27:56.686Z,80.57
2023-12-11T18:30:26.242Z,80.69
2023-12-11T18:32:57.194Z,80.87
2023-12-11T18:35:26.386Z,80.95
2023-12-11T18:37:54.468Z,80.93
2023-12-11T18:40:23.155Z,80.81
2023-12-11T18:42:50.843Z,80.76
2023-12-11T18:45:19.895Z,80.76
2023-12-11T18:47:49.016Z,80.74
2023-12-11T18:50:26.886Z,80.66
2023-12-11T18:52:58.074Z,80.73
2023-12-11T18:55:32.585Z,80.70
2023-12-11T18:58:00.294Z,80.41
2023-12-11T19:00:32.218Z,80.26
2023-12-11T19:03:02.092Z,80.31
2023-12-11T19:05:30.021Z,80.37
2023-12-11T19:07:57.794Z,80.46
2023-12-11T19:10:27.658Z,80.65
2023-12-11T19:12:57.041Z,80.72
2023-12-11T19:15:28.367Z,80.57
2023-12-11T19:22:04.149Z,80.21
2023-12-11T19:24:33.022Z,80.29
2023-12-11T19:27:03.841Z,80.16
2023-12-11T19:29:31.791Z,80.01
2023-12-11T19:32:00.061Z,79.87
2023-12-11T19:34:27.759Z,79.84
2023-12-11T19:36:55.459Z,80.07
2023-12-11T19:39:23.038Z,80.14
2023-12-11T19:41:54.401Z,80.15
2023-12-11T19:44:23.886Z,80.27
2023-12-11T19:46:52.547Z,80.42
2023-12-11T19:49:20.434Z,80.29
2023-12-11T19:51:48.147Z,80.17
2023-12-11T19:54:15.748Z,80.23
2023-12-11T19:56:45.164Z,80.27
2023-12-11T19:59:17.719Z,80.57
2023-12-11T20:01:45.418Z,80.55
2023-12-11T20:04:13.193Z,80.54
2023-12-11T20:06:42.487Z,80.30
2023-12-11T20:09:10.096Z,80.34
2023-12-11T20:11:37.830Z,80.16
2023-12-11T20:14:05.450Z,80.09
2023-12-11T20:16:33.308Z,80.11
2023-12-11T20:19:01.399Z,80.21
2023-12-11T20:21:29.432Z,80.50
2023-12-11T20:23:57.074Z,80.72
2023-12-11T20:26:26.578Z,80.55
2023-12-11T20:28:54.133Z,80.25
2023-12-11T20:31:21.744Z,80.13
2023-12-11T20:33:52.091Z,80.35
2023-12-11T20:36:20.285Z,80.34
2023-12-11T20:38:50.613Z,80.52
2023-12-11T20:41:22.185Z,80.86
2023-12-11T20:43:52.979Z,81.06
2023-12-11T20:46:25.320Z,80.68
2023-12-11T20:48:56.045Z,80.58
2023-12-11T20:51:26.013Z,80.59
2023-12-11T20:53:54.099Z,80.62
2023-12-11T20:56:30.853Z,80.76
2023-12-11T20:59:01.973Z,80.91
2023-12-11T21:01:34.659Z,80.95
2023-12-11T21:04:05.919Z,80.57
2023-12-11T21:06:36.789Z,80.34
2023-12-11T21:09:11.996Z,80.33
2023-12-11T21:11:39.721Z,80.55
2023-12-11T21:14:07.393Z,80.42
2023-12-11T21:16:37.782Z,80.27
2023-12-11T21:19:06.541Z,80.18
2023-12-11T21:21:40.331Z,79.99
2023-12-11T21:24:10.123Z,79.88
2023-12-11T21:26:37.993Z,79.81
2023-12-11T21:29:05.821Z,79.86
2023-12-11T21:31:36.671Z,79.92
2023-12-11T21:34:06.779Z,80.10
2023-12-11T21:36:34.771Z,80.04
2023-12-11T21:39:06.673Z,79.81
2023-12-11T21:41:34.890Z,79.80
2023-12-11T21:44:02.713Z,79.41
2023-12-11T21:46:33.466Z,79.28
2023-12-11T21:49:02.753Z,79.30
2023-12-11T21:51:31.091Z,79.21
2023-12-11T21:53:58.900Z,79.32
2023-12-11T21:56:27.128Z,79.33
2023-12-11T21:58:54.903Z,79.38
2023-12-11T22:01:22.532Z,79.21
2023-12-11T22:03:50.321Z,79.28
2023-12-11T22:06:19.268Z,79.19
2023-12-11T22:08:47.144Z,79.43
2023-12-11T22:11:15.401Z,79.70
2023-12-11T22:13:43.253Z,79.82
2023-12-11T22:16:10.819Z,79.82
2023-12-11T22:18:38.831Z,79.84
2023-12-11T22:21:06.678Z,79.86
2023-12-11T22:23:34.906Z,79.93
2023-12-11T22:26:02.533Z,79.91
2023-12-11T22:28:30.168Z,80.06
2023-12-11T22:30:57.751Z,80.21
2023-12-11T22:33:25.269Z,80.14
2023-12-11T22:35:52.999Z,80.21
2023-12-11T22:38:20.890Z,80.20
2023-12-11T22:40:49.123Z,80.37
2023-12-11T22:43:16.932Z,80.27
2023-12-11T22:45:44.531Z,80.31
2023-12-11T22:48:15.000Z,80.44
2023-12-11T22:50:43.118Z,80.39
2023-12-11T22:53:11.053Z,80.20
2023-12-11T22:55:38.669Z,80.27
2023-12-11T22:58:14.033Z,80.34
2023-12-11T23:00:44.483Z,80.49
2023-12-11T23:03:12.319Z,80.52
2023-12-11T23:05:40.808Z,80.62
2023-12-11T23:08:08.337Z,80.47
2023-12-11T23:10:36.012Z,80.43
2023-12-11T23:13:03.680Z,80.39
2023-12-11T23:15:32.992Z,80.51
2023-12-11T23:18:04.885Z,80.82
2023-12-11T23:20:32.644Z,80.99
2023-12-11T23:23:02.346Z,81.04
2023-12-11T23:25:29.900Z,81.02
2023-12-11T23:27:57.555Z,80.81
2023-12-11T23:30:25.108Z,80.50
2023-12-11T23:32:52.978Z,80.37
2023-12-11T23:35:20.749Z,80.62
2023-12-11T23:37:49.527Z,80.75
2023-12-11T23:40:17.221Z,80.81
2023-12-11T23:42:45.938Z,80.90
2023-12-11T23:45:13.489Z,80.85
2023-12-11T23:47:41.096Z,80.65
2023-12-11T23:50:09.670Z,80.42
2023-12-11T23:52:37.783Z,80.57
2023-12-11T23:55:05.811Z,80.47
2023-12-11T23:57:34.470Z,80.65
